Time;durP1;ratioP1;P1;durP2;ratioP2;P2;SDS_P1;SDS_P2;PMS_P1;PMS_P2;Temp;Humidity;BMP_temperature;BMP_pressure;BME280_temperature;BME280_humidity;BME280_pressure;Samples;Min_cycle;Max_cycle;Signal;HPM_P1;HPM_P2
2023/07/18 00:01:09;;;;;;;;;;;18.40;74.50;;;;;;5111439;28;19920;-75
2023/07/18 00:03:35;;;;;;;;;;;18.40;74.50;;;;;;5124047;27;19917;-75
2023/07/18 00:06:01;;;;;;;;;;;18.40;74.60;;;;;;5110826;28;19912;-75
2023/07/18 00:08:26;;;;;;;;;;;18.40;74.70;;;;;;5111101;28;19995;-75
2023/07/18 00:10:52;;;;;;;;;;;18.40;74.70;;;;;;5111043;28;19916;-75
2023/07/18 00:13:17;;;;;;;;;;;18.40;74.80;;;;;;5129851;27;20297;-75
2023/07/18 00:15:44;;;;;;;;;;;18.40;74.80;;;;;;5130702;27;19950;-76
2023/07/18 00:18:10;;;;;;;;;;;18.30;74.80;;;;;;5130915;27;19935;-75
2023/07/18 00:20:36;;;;;;;;;;;18.30;74.80;;;;;;5102664;27;20343;-75
2023/07/18 00:23:01;;;;;;;;;;;18.30;74.80;;;;;;5089637;28;19920;-75
2023/07/18 00:25:27;;;;;;;;;;;18.30;74.80;;;;;;5103830;27;19919;-75
2023/07/18 00:27:53;;;;;;;;;;;18.30;74.80;;;;;;5110138;28;20101;-75
2023/07/18 00:30:20;;;;;;;;;;;18.30;74.80;;;;;;5109136;28;20371;-75
2023/07/18 00:32:46;;;;;;;;;;;18.30;74.90;;;;;;5111205;28;19916;-75
2023/07/18 00:35:12;;;;;;;;;;;18.30;74.90;;;;;;5110556;27;19919;-75
2023/07/18 00:37:38;;;;;;;;;;;18.30;75.00;;;;;;5110445;28;19947;-75
2023/07/18 00:40:10;;;;;;;;;;;18.20;74.90;;;;;;5110599;28;19916;-76
2023/07/18 00:42:36;;;;;;;;;;;18.20;75.00;;;;;;5118100;27;19912;-75
2023/07/18 00:45:02;;;;;;;;;;;18.20;75.00;;;;;;5108567;28;19916;-75
2023/07/18 00:47:27;;;;;;;;;;;18.20;75.00;;;;;;5110249;28;20048;-75
2023/07/18 00:49:53;;;;;;;;;;;18.20;75.10;;;;;;5110820;27;19959;-75
2023/07/18 00:52:19;;;;;;;;;;;18.20;75.10;;;;;;5090107;28;19920;-75
2023/07/18 00:54:44;;;;;;;;;;;18.20;75.10;;;;;;5089817;28;19912;-75
2023/07/18 00:57:11;;;;;;;;;;;18.10;75.10;;;;;;5089993;28;20261;-75
2023/07/18 00:59:37;;;;;;;;;;;18.20;75.10;;;;;;5089985;28;19912;-75
2023/07/18 01:02:04;;;;;;;;;;;18.10;75.10;;;;;;5089746;28;19911;-74
2023/07/18 01:04:29;;;;;;;;;;;18.10;75.20;;;;;;5105392;27;19911;-75
2023/07/18 01:06:55;;;;;;;;;;;18.10;75.20;;;;;;5111957;27;20403;-76
2023/07/18 01:09:20;;;;;;;;;;;18.10;75.30;;;;;;5107712;28;20279;-75
2023/07/18 01:11:46;;;;;;;;;;;18.10;75.40;;;;;;5114080;27;19980;-75
2023/07/18 01:14:11;;;;;;;;;;;18.00;75.30;;;;;;5130355;27;20031;-75
2023/07/18 01:16:37;;;;;;;;;;;18.00;75.30;;;;;;5130220;27;19912;-75
2023/07/18 01:19:02;;;;;;;;;;;18.00;75.30;;;;;;5129064;27;19918;-75
2023/07/18 01:21:28;;;;;;;;;;;18.00;75.50;;;;;;5122106;27;19911;-75
2023/07/18 01:23:53;;;;;;;;;;;18.00;75.50;;;;;;5126733;27;19958;-75
2023/07/18 01:26:19;;;;;;;;;;;18.00;75.50;;;;;;5109336;28;20268;-75
2023/07/18 01:28:45;;;;;;;;;;;18.00;75.50;;;;;;5109718;28;20356;-75
2023/07/18 01:31:10;;;;;;;;;;;18.00;75.50;;;;;;5109380;28;19912;-75
2023/07/18 01:33:36;;;;;;;;;;;18.00;75.50;;;;;;5095197;28;20470;-75
2023/07/18 01:36:02;;;;;;;;;;;17.90;75.50;;;;;;5117997;27;19911;-75
2023/07/18 01:38:31;;;;;;;;;;;17.90;75.50;;;;;;5127820;27;19999;-75
2023/07/18 01:40:57;;;;;;;;;;;17.90;75.50;;;;;;5128776;27;19918;-75
2023/07/18 01:43:23;;;;;;;;;;;17.90;75.70;;;;;;5110971;27;19912;-75
2023/07/18 01:45:48;;;;;;;;;;;17.90;76.40;;;;;;5108699;28;19908;-75
2023/07/18 01:48:14;;;;;;;;;;;17.80;75.60;;;;;;5109218;28;19919;-74
2023/07/18 01:50:40;;;;;;;;;;;17.90;75.80;;;;;;5108954;28;19916;-74
2023/07/18 01:53:06;;;;;;;;;;;17.90;75.70;;;;;;5109965;28;19922;-75
2023/07/18 01:55:31;;;;;;;;;;;17.90;75.70;;;;;;5091481;28;19908;-75
2023/07/18 01:57:57;;;;;;;;;;;17.80;76.40;;;;;;5092254;28;19920;-75
2023/07/18 02:00:24;;;;;;;;;;;17.80;76.40;;;;;;5109100;28;19912;-74
2023/07/18 02:02:51;;;;;;;;;;;17.80;75.90;;;;;;5108816;28;20000;-75
2023/07/18 02:05:18;;;;;;;;;;;17.80;75.90;;;;;;5108760;28;19919;-75
2023/07/18 02:07:44;;;;;;;;;;;17.80;76.20;;;;;;5128993;27;19916;-74
2023/07/18 02:10:09;;;;;;;;;;;17.80;75.90;;;;;;5125670;27;19930;-75
2023/07/18 02:12:35;;;;;;;;;;;17.70;76.00;;;;;;5120132;27;19915;-75
2023/07/18 02:15:01;;;;;;;;;;;17.70;76.00;;;;;;5129249;27;19918;-75
2023/07/18 02:17:26;;;;;;;;;;;17.70;76.00;;;;;;5127911;28;20586;-75
2023/07/18 02:19:52;;;;;;;;;;;17.70;76.00;;;;;;5120991;27;20002;-74
2023/07/18 02:22:19;;;;;;;;;;;17.70;76.70;;;;;;5118086;28;19924;-75
2023/07/18 02:24:44;;;;;;;;;;;17.60;76.10;;;;;;5117363;28;20004;-75
2023/07/18 02:27:10;;;;;;;;;;;17.60;76.10;;;;;;5108918;28;19966;-75
2023/07/18 02:29:35;;;;;;;;;;;17.60;76.10;;;;;;5108948;28;20344;-74
2023/07/18 02:32:01;;;;;;;;;;;17.60;76.20;;;;;;5108726;28;19912;-75
2023/07/18 02:34:26;;;;;;;;;;;17.60;76.30;;;;;;5108697;28;20453;-75
2023/07/18 02:36:53;;;;;;;;;;;17.60;76.40;;;;;;5108527;28;19912;-75
2023/07/18 02:39:19;;;;;;;;;;;17.60;76.30;;;;;;5112017;28;19919;-75
2023/07/18 02:41:44;;;;;;;;;;;17.50;76.30;;;;;;5113993;28;19922;-74
2023/07/18 02:44:11;;;;;;;;;;;17.50;76.30;;;;;;5103796;28;20045;-74
2023/07/18 02:46:36;;;;;;;;;;;17.50;76.40;;;;;;5106931;28;20311;-75
2023/07/18 02:49:03;;;;;;;;;;;17.50;76.30;;;;;;5107159;28;19969;-75
2023/07/18 02:51:29;;;;;;;;;;;17.50;76.40;;;;;;5108485;28;19908;-75
2023/07/18 02:53:54;;;;;;;;;;;17.50;76.40;;;;;;5107635;28;19930;-75
2023/07/18 02:56:20;;;;;;;;;;;17.50;76.40;;;;;;5108601;28;19918;-75
2023/07/18 02:58:47;;;;;;;;;;;17.50;76.60;;;;;;5108695;28;20299;-74
2023/07/18 03:01:12;;;;;;;;;;;17.50;76.50;;;;;;5108425;28;19944;-75
2023/07/18 03:03:38;;;;;;;;;;;17.50;76.50;;;;;;5108247;28;20457;-74
2023/07/18 03:06:04;;;;;;;;;;;17.50;76.60;;;;;;5108057;28;19923;-75
2023/07/18 03:08:32;;;;;;;;;;;17.50;76.50;;;;;;5108423;28;19980;-74
2023/07/18 03:11:01;;;;;;;;;;;17.40;76.60;;;;;;5121490;28;19997;-74
2023/07/18 03:13:27;;;;;;;;;;;17.40;76.50;;;;;;5128844;27;20009;-74
2023/07/18 03:15:54;;;;;;;;;;;17.40;76.60;;;;;;5128618;27;19908;-74
2023/07/18 03:18:20;;;;;;;;;;;17.40;76.50;;;;;;5129050;27;19911;-75
2023/07/18 03:20:46;;;;;;;;;;;17.40;76.60;;;;;;5113398;27;19911;-75
2023/07/18 03:23:11;;;;;;;;;;;17.40;76.60;;;;;;5108155;28;19919;-75
2023/07/18 03:25:37;;;;;;;;;;;17.40;76.80;;;;;;5093410;28;20007;-74
2023/07/18 03:28:02;;;;;;;;;;;17.40;76.60;;;;;;5128532;27;19963;-74
2023/07/18 03:30:28;;;;;;;;;;;17.30;76.70;;;;;;5128603;27;19911;-75
2023/07/18 03:32:54;;;;;;;;;;;17.30;76.60;;;;;;5132229;27;19911;-75
2023/07/18 03:35:20;;;;;;;;;;;17.30;76.70;;;;;;5114587;27;19911;-75
2023/07/18 03:37:45;;;;;;;;;;;17.30;76.80;;;;;;5111856;27;19961;-75
2023/07/18 03:40:15;;;;;;;;;;;17.30;76.80;;;;;;5111732;28;19912;-75
2023/07/18 03:42:41;;;;;;;;;;;17.30;76.90;;;;;;5115661;27;20381;-75
2023/07/18 03:45:09;;;;;;;;;;;17.30;76.80;;;;;;5110160;28;20013;-75
2023/07/18 03:47:36;;;;;;;;;;;17.30;76.90;;;;;;5111600;28;20390;-74
2023/07/18 03:50:02;;;;;;;;;;;17.20;76.70;;;;;;5109635;27;19927;-74
2023/07/18 03:52:28;;;;;;;;;;;17.20;76.80;;;;;;5105446;27;20617;-74
2023/07/18 03:54:53;;;;;;;;;;;17.20;76.80;;;;;;5102388;27;19919;-74
2023/07/18 03:57:19;;;;;;;;;;;17.20;76.80;;;;;;5111180;28;19912;-74
2023/07/18 03:59:44;;;;;;;;;;;17.20;76.90;;;;;;5110289;28;20265;-75
2023/07/18 04:02:12;;;;;;;;;;;17.20;76.80;;;;;;5111575;28;19911;-74
2023/07/18 04:04:37;;;;;;;;;;;17.20;76.90;;;;;;5110999;28;20512;-75
2023/07/18 04:07:03;;;;;;;;;;;17.20;76.80;;;;;;5113565;27;19922;-74
2023/07/18 04:09:28;;;;;;;;;;;17.20;76.80;;;;;;5131420;27;19911;-75
2023/07/18 04:11:55;;;;;;;;;;;17.20;76.80;;;;;;5128981;27;20681;-74
2023/07/18 04:14:20;;;;;;;;;;;17.20;76.80;;;;;;5131447;27;19915;-74
2023/07/18 04:16:46;;;;;;;;;;;17.20;76.80;;;;;;5129777;27;19911;-75
2023/07/18 04:19:11;;;;;;;;;;;17.20;76.80;;;;;;5129041;27;19945;-74
2023/07/18 04:21:37;;;;;;;;;;;17.20;76.80;;;;;;5109469;28;19911;-74
2023/07/18 04:24:04;;;;;;;;;;;17.20;76.80;;;;;;5108393;27;19916;-74
2023/07/18 04:26:30;;;;;;;;;;;17.10;76.80;;;;;;5128617;27;19915;-74
2023/07/18 04:28:55;;;;;;;;;;;17.20;76.90;;;;;;5131522;27;20302;-75
2023/07/18 04:31:21;;;;;;;;;;;17.10;76.80;;;;;;5131434;27;19925;-74
2023/07/18 04:33:47;;;;;;;;;;;17.20;76.90;;;;;;5125684;27;19981;-74
2023/07/18 04:36:12;;;;;;;;;;;17.20;76.90;;;;;;5110450;28;19912;-74
2023/07/18 04:38:38;;;;;;;;;;;17.20;76.80;;;;;;5110469;28;20016;-74
2023/07/18 04:41:03;;;;;;;;;;;17.20;76.80;;;;;;5125739;27;19911;-74
2023/07/18 04:43:29;;;;;;;;;;;17.20;76.90;;;;;;5117144;27;20018;-74
2023/07/18 04:45:55;;;;;;;;;;;17.20;76.80;;;;;;5110012;28;19912;-75
2023/07/18 04:48:21;;;;;;;;;;;17.20;77.60;;;;;;5110566;28;20339;-75
2023/07/18 04:50:47;;;;;;;;;;;17.20;76.80;;;;;;5110336;28;20475;-75
2023/07/18 04:53:13;;;;;;;;;;;17.20;76.80;;;;;;5110463;28;19907;-75
2023/07/18 04:55:38;;;;;;;;;;;17.20;76.80;;;;;;5100475;27;19908;-74
2023/07/18 04:58:05;;;;;;;;;;;17.20;76.90;;;;;;5130880;27;20001;-74
2023/07/18 05:00:31;;;;;;;;;;;17.20;76.80;;;;;;5130984;27;19914;-75
2023/07/18 05:02:57;;;;;;;;;;;17.20;76.80;;;;;;5130569;27;20368;-75
2023/07/18 05:05:24;;;;;;;;;;;17.20;76.80;;;;;;5110512;27;19919;-74
2023/07/18 05:07:49;;;;;;;;;;;17.20;76.70;;;;;;5127548;27;19911;-74
2023/07/18 05:10:15;;;;;;;;;;;17.20;76.70;;;;;;5130484;27;19922;-74
2023/07/18 05:12:40;;;;;;;;;;;17.20;76.70;;;;;;5119147;27;20261;-74
2023/07/18 05:15:06;;;;;;;;;;;17.20;76.70;;;;;;5109803;28;19922;-74
2023/07/18 05:17:31;;;;;;;;;;;17.20;76.70;;;;;;5109890;28;19996;-74
2023/07/18 05:19:57;;;;;;;;;;;17.20;76.70;;;;;;5115273;27;19911;-75
2023/07/18 05:22:22;;;;;;;;;;;17.20;76.70;;;;;;5130133;27;19919;-75
2023/07/18 05:24:48;;;;;;;;;;;17.20;76.70;;;;;;5118735;27;19915;-74
2023/07/18 05:27:13;;;;;;;;;;;17.20;76.70;;;;;;5108850;28;19916;-75
2023/07/18 05:29:39;;;;;;;;;;;17.20;76.70;;;;;;5109170;28;20288;-75
2023/07/18 05:32:05;;;;;;;;;;;17.20;76.60;;;;;;5109465;28;19911;-75
2023/07/18 05:34:32;;;;;;;;;;;17.20;76.70;;;;;;5109102;28;19947;-75
2023/07/18 05:36:58;;;;;;;;;;;17.20;76.60;;;;;;5112654;27;19970;-75
2023/07/18 05:39:23;;;;;;;;;;;17.20;76.60;;;;;;5112093;27;19919;-74
2023/07/18 05:41:49;;;;;;;;;;;17.20;76.60;;;;;;5113720;27;20360;-74
2023/07/18 05:44:16;;;;;;;;;;;17.30;76.50;;;;;;5109860;27;19923;-75
2023/07/18 05:46:42;;;;;;;;;;;17.20;76.50;;;;;;5108446;28;19953;-75
2023/07/18 05:49:07;;;;;;;;;;;17.20;76.50;;;;;;5108914;28;20352;-74
2023/07/18 05:51:33;;;;;;;;;;;17.30;76.50;;;;;;5108906;27;19912;-74
2023/07/18 05:53:58;;;;;;;;;;;17.30;76.50;;;;;;5106258;28;19983;-74
2023/07/18 05:56:24;;;;;;;;;;;17.30;76.50;;;;;;5108645;28;19918;-75
2023/07/18 05:58:49;;;;;;;;;;;17.30;76.40;;;;;;5109383;28;19911;-74
2023/07/18 06:01:15;;;;;;;;;;;17.30;76.30;;;;;;5115431;27;19914;-75
2023/07/18 06:03:40;;;;;;;;;;;17.30;76.40;;;;;;5125222;27;19924;-76
2023/07/18 06:06:07;;;;;;;;;;;17.40;76.30;;;;;;5108808;28;19965;-77
2023/07/18 06:08:33;;;;;;;;;;;17.30;76.30;;;;;;5108790;28;19962;-77
2023/07/18 06:10:58;;;;;;;;;;;17.30;76.10;;;;;;5108530;28;19951;-76
2023/07/18 06:13:24;;;;;;;;;;;17.40;76.20;;;;;;5109425;27;20632;-76
2023/07/18 06:15:50;;;;;;;;;;;17.40;76.80;;;;;;5107858;28;19915;-77
2023/07/18 06:18:16;;;;;;;;;;;17.40;76.10;;;;;;5108640;28;19943;-77
2023/07/18 06:20:43;;;;;;;;;;;17.40;76.10;;;;;;5107776;28;19939;-76
2023/07/18 06:23:09;;;;;;;;;;;17.40;76.10;;;;;;5108307;28;19989;-76
2023/07/18 06:25:35;;;;;;;;;;;17.40;76.10;;;;;;5108079;28;20307;-76
2023/07/18 06:28:02;;;;;;;;;;;17.40;76.10;;;;;;5108464;28;19990;-76
2023/07/18 06:30:27;;;;;;;;;;;17.40;76.10;;;;;;5108612;28;19978;-77
2023/07/18 06:32:53;;;;;;;;;;;17.50;75.90;;;;;;5108378;28;20392;-77
2023/07/18 06:35:18;;;;;;;;;;;17.50;76.00;;;;;;5108181;28;19915;-76
2023/07/18 06:37:44;;;;;;;;;;;17.50;75.90;;;;;;5108078;28;20429;-76
2023/07/18 06:40:11;;;;;;;;;;;17.50;75.90;;;;;;5106749;28;19912;-77
2023/07/18 06:42:36;;;;;;;;;;;17.50;75.80;;;;;;5110252;28;19950;-76
2023/07/18 06:45:03;;;;;;;;;;;17.50;75.80;;;;;;5108379;28;20356;-77
2023/07/18 06:47:29;;;;;;;;;;;17.50;75.70;;;;;;5102768;28;19912;-76
2023/07/18 06:49:55;;;;;;;;;;;17.50;75.80;;;;;;5108101;28;20501;-77
2023/07/18 06:52:20;;;;;;;;;;;17.50;75.70;;;;;;5108285;28;20370;-76
2023/07/18 06:54:46;;;;;;;;;;;17.60;75.70;;;;;;5107839;28;19946;-76
2023/07/18 06:57:14;;;;;;;;;;;17.60;75.70;;;;;;5106457;28;20359;-76
2023/07/18 06:59:40;;;;;;;;;;;17.60;75.60;;;;;;5108821;28;20349;-76
2023/07/18 07:02:05;;;;;;;;;;;17.60;75.50;;;;;;5108738;28;19989;-76
2023/07/18 07:04:31;;;;;;;;;;;17.60;75.80;;;;;;5114738;28;19908;-72
2023/07/18 07:06:56;;;;;;;;;;;17.60;75.50;;;;;;5110394;28;19919;-76
2023/07/18 07:09:24;;;;;;;;;;;17.60;75.40;;;;;;5112376;28;19937;-77
2023/07/18 07:11:49;;;;;;;;;;;17.70;75.50;;;;;;5117816;27;19971;-77
2023/07/18 07:14:15;;;;;;;;;;;17.70;75.50;;;;;;5132889;27;20376;-77
2023/07/18 07:16:40;;;;;;;;;;;17.70;75.40;;;;;;5125283;27;20398;-74
2023/07/18 07:19:06;;;;;;;;;;;17.70;75.20;;;;;;5110187;28;19938;-78
2023/07/18 07:21:32;;;;;;;;;;;17.70;75.20;;;;;;5111955;28;19922;-81
2023/07/18 07:23:58;;;;;;;;;;;17.80;75.20;;;;;;5113511;28;19916;-80
2023/07/18 07:26:24;;;;;;;;;;;17.80;75.10;;;;;;5114507;28;19926;-80
2023/07/18 07:28:50;;;;;;;;;;;17.80;75.10;;;;;;5114799;28;20250;-79
2023/07/18 07:31:15;;;;;;;;;;;17.80;75.00;;;;;;5114663;28;19918;-79
2023/07/18 07:33:41;;;;;;;;;;;17.80;74.90;;;;;;5112625;27;19912;-78
2023/07/18 07:36:07;;;;;;;;;;;17.80;74.90;;;;;;5112856;27;19961;-78
2023/07/18 07:38:32;;;;;;;;;;;17.90;75.00;;;;;;5112138;28;19916;-78
2023/07/18 07:40:58;;;;;;;;;;;17.90;74.90;;;;;;5112109;27;19924;-78
2023/07/18 07:43:24;;;;;;;;;;;17.90;74.80;;;;;;5109286;28;20010;-78
2023/07/18 07:45:49;;;;;;;;;;;17.90;74.80;;;;;;5110863;28;20776;-77
2023/07/18 07:48:15;;;;;;;;;;;17.90;74.70;;;;;;5109928;28;19957;-77
2023/07/18 07:50:42;;;;;;;;;;;18.00;74.90;;;;;;5110861;28;20544;-77
2023/07/18 07:53:09;;;;;;;;;;;18.00;74.90;;;;;;5113823;27;19916;-77
2023/07/18 07:55:34;;;;;;;;;;;18.00;74.60;;;;;;5109375;28;19908;-77
2023/07/18 07:58:00;;;;;;;;;;;18.00;74.50;;;;;;5111443;28;19908;-77
2023/07/18 08:00:26;;;;;;;;;;;18.10;74.40;;;;;;5114437;27;19919;-77
2023/07/18 08:02:52;;;;;;;;;;;18.00;74.40;;;;;;5128210;27;20276;-77
2023/07/18 08:05:17;;;;;;;;;;;18.10;74.40;;;;;;5114715;27;19911;-77
2023/07/18 08:07:43;;;;;;;;;;;18.10;74.30;;;;;;5111205;28;19955;-76
2023/07/18 08:10:09;;;;;;;;;;;18.10;74.80;;;;;;5111251;28;19959;-76
2023/07/18 08:12:35;;;;;;;;;;;18.10;74.20;;;;;;5123640;27;20292;-76
2023/07/18 08:15:00;;;;;;;;;;;18.20;74.10;;;;;;5131827;27;19927;-77
2023/07/18 08:17:26;;;;;;;;;;;18.20;74.10;;;;;;5129210;27;20249;-75
2023/07/18 08:19:51;;;;;;;;;;;18.30;74.00;;;;;;5115600;27;19916;-76
2023/07/18 08:22:17;;;;;;;;;;;18.30;73.80;;;;;;5090536;28;19916;-75
2023/07/18 08:24:43;;;;;;;;;;;18.30;73.80;;;;;;5090455;28;19916;-77
2023/07/18 08:27:09;;;;;;;;;;;18.30;73.80;;;;;;5090282;28;19912;-78
2023/07/18 08:29:35;;;;;;;;;;;18.30;73.70;;;;;;5096496;27;20395;-75
2023/07/18 08:32:01;;;;;;;;;;;18.40;73.80;;;;;;5131442;27;19935;-74
2023/07/18 08:34:26;;;;;;;;;;;18.40;73.60;;;;;;5121492;27;19954;-75
2023/07/18 08:36:52;;;;;;;;;;;18.40;73.60;;;;;;5110735;28;19976;-77
2023/07/18 08:39:18;;;;;;;;;;;18.50;73.60;;;;;;5110856;28;19912;-77
2023/07/18 08:41:44;;;;;;;;;;;18.50;73.40;;;;;;5115631;27;19911;-77
2023/07/18 08:44:13;;;;;;;;;;;18.50;73.30;;;;;;5113425;27;19923;-76
2023/07/18 08:46:44;;;;;;;;;;;18.50;73.30;;;;;;5110106;28;19919;-78
2023/07/18 08:49:16;;;;;;;;;;;18.50;73.20;;;;;;5108953;28;20023;-77
2023/07/18 08:51:41;;;;;;;;;;;18.60;73.20;;;;;;5110559;28;19961;-77
2023/07/18 08:54:07;;;;;;;;;;;18.60;73.10;;;;;;5105185;28;20397;-75
2023/07/18 08:56:33;;;;;;;;;;;18.60;73.00;;;;;;5090294;28;20334;-74
2023/07/18 08:59:02;;;;;;;;;;;18.70;72.90;;;;;;5129382;27;20551;-75
2023/07/18 09:01:28;;;;;;;;;;;18.70;72.90;;;;;;5112080;27;19915;-76
2023/07/18 09:03:55;;;;;;;;;;;18.70;72.80;;;;;;5115914;27;19912;-76
2023/07/18 09:06:20;;;;;;;;;;;18.80;72.80;;;;;;5117434;27;19912;-77
2023/07/18 09:08:46;;;;;;;;;;;18.80;72.80;;;;;;5110405;28;19918;-73
2023/07/18 09:11:14;;;;;;;;;;;18.80;72.70;;;;;;5118147;27;19919;-76
2023/07/18 09:13:41;;;;;;;;;;;18.80;72.70;;;;;;5130733;27;19990;-76
2023/07/18 09:16:17;;;;;;;;;;;18.90;72.50;;;;;;5128681;27;19911;-74
2023/07/18 09:18:52;;;;;;;;;;;18.90;72.50;;;;;;5089348;28;19965;-77
2023/07/18 09:21:18;;;;;;;;;;;18.90;72.40;;;;;;5089988;28;19912;-79
2023/07/18 09:23:44;;;;;;;;;;;19.00;72.20;;;;;;5091386;28;19946;-75
2023/07/18 09:26:11;;;;;;;;;;;19.10;72.20;;;;;;5128342;27;19915;-77
2023/07/18 09:28:37;;;;;;;;;;;19.10;72.00;;;;;;5129334;27;19918;-77
2023/07/18 09:31:04;;;;;;;;;;;19.20;71.90;;;;;;5114290;27;19923;-71
2023/07/18 09:33:30;;;;;;;;;;;19.30;71.80;;;;;;5108464;28;20272;-77
2023/07/18 09:35:58;;;;;;;;;;;19.40;71.70;;;;;;5107342;28;19911;-76
2023/07/18 09:38:23;;;;;;;;;;;19.40;71.70;;;;;;5114078;27;19926;-77
2023/07/18 09:40:49;;;;;;;;;;;19.50;71.50;;;;;;5130071;27;19912;-76
2023/07/18 09:43:15;;;;;;;;;;;19.60;71.30;;;;;;5112692;27;19919;-76
2023/07/18 09:45:41;;;;;;;;;;;19.60;71.30;;;;;;5108943;27;20360;-76
2023/07/18 09:48:07;;;;;;;;;;;19.70;71.10;;;;;;5107852;28;20418;-76
2023/07/18 09:50:35;;;;;;;;;;;19.80;71.00;;;;;;5109420;28;19947;-78
2023/07/18 09:53:01;;;;;;;;;;;19.90;70.90;;;;;;5109493;27;19931;-78
2023/07/18 09:55:29;;;;;;;;;;;19.90;70.80;;;;;;5092864;28;20238;-79
2023/07/18 09:57:55;;;;;;;;;;;20.00;70.70;;;;;;5087572;28;20546;-77
2023/07/18 10:00:22;;;;;;;;;;;20.00;70.60;;;;;;5105767;28;19990;-79
2023/07/18 10:02:48;;;;;;;;;;;20.10;70.40;;;;;;5089027;28;19958;-78
2023/07/18 10:05:15;;;;;;;;;;;20.30;70.20;;;;;;5107137;27;19955;-78
2023/07/18 10:07:41;;;;;;;;;;;20.40;70.10;;;;;;5130084;27;20275;-78
2023/07/18 10:10:10;;;;;;;;;;;20.50;69.40;;;;;;5129194;27;20006;-79
2023/07/18 10:12:36;;;;;;;;;;;20.60;69.20;;;;;;5130155;27;19994;-79
2023/07/18 10:15:03;;;;;;;;;;;20.70;69.20;;;;;;5130378;27;20011;-78
2023/07/18 10:17:34;;;;;;;;;;;20.70;69.00;;;;;;5129461;27;19907;-78
2023/07/18 10:20:01;;;;;;;;;;;20.80;69.10;;;;;;5119108;27;20572;-78
2023/07/18 10:22:30;;;;;;;;;;;20.80;69.10;;;;;;5108200;28;19965;-78
2023/07/18 10:25:00;;;;;;;;;;;20.90;69.10;;;;;;5097345;28;19937;-79
2023/07/18 10:27:34;;;;;;;;;;;20.90;69.20;;;;;;5088846;28;20650;-78
2023/07/18 10:30:03;;;;;;;;;;;21.00;69.00;;;;;;5089660;28;20452;-79
2023/07/18 10:32:29;;;;;;;;;;;21.10;69.00;;;;;;5110296;28;19908;-78
2023/07/18 10:34:55;;;;;;;;;;;21.10;68.70;;;;;;5115688;27;19916;-79
2023/07/18 10:37:24;;;;;;;;;;;21.10;69.00;;;;;;5108854;28;19923;-78
2023/07/18 10:39:50;;;;;;;;;;;21.20;68.80;;;;;;5108170;28;19911;-78
2023/07/18 10:42:21;;;;;;;;;;;21.20;69.20;;;;;;5118876;27;19915;-79
2023/07/18 10:44:47;;;;;;;;;;;21.20;68.90;;;;;;5109020;28;20002;-78
2023/07/18 10:47:13;;;;;;;;;;;21.20;69.20;;;;;;5122164;27;20002;-76
2023/07/18 10:49:39;;;;;;;;;;;21.20;69.30;;;;;;5133583;27;19915;-72
2023/07/18 10:52:05;;;;;;;;;;;21.40;68.90;;;;;;5133280;27;19911;-73
2023/07/18 10:54:30;;;;;;;;;;;21.40;68.80;;;;;;5124746;27;20018;-73
2023/07/18 10:56:56;;;;;;;;;;;21.40;68.70;;;;;;5112446;28;19908;-72
2023/07/18 10:59:22;;;;;;;;;;;21.50;68.60;;;;;;5113210;28;20431;-74
2023/07/18 11:01:47;;;;;;;;;;;21.60;67.90;;;;;;5112534;28;19911;-73
2023/07/18 11:04:13;;;;;;;;;;;21.70;68.20;;;;;;5112420;27;19919;-75
2023/07/18 11:06:53;;;;;;;;;;;21.70;68.40;;;;;;5112275;27;19912;-76
2023/07/18 11:09:19;;;;;;;;;;;21.80;68.40;;;;;;5112418;28;20587;-75
2023/07/18 11:11:44;;;;;;;;;;;21.80;68.20;;;;;;5117280;27;19911;-76
2023/07/18 11:14:10;;;;;;;;;;;21.90;68.40;;;;;;5124877;27;19923;-74
2023/07/18 11:16:36;;;;;;;;;;;21.80;67.60;;;;;;5127576;27;20387;-76
2023/07/18 11:19:05;;;;;;;;;;;21.80;68.40;;;;;;5112491;28;20522;-73
2023/07/18 11:21:30;;;;;;;;;;;21.90;68.50;;;;;;5111978;27;19942;-73
2023/07/18 11:23:56;;;;;;;;;;;21.90;68.60;;;;;;5110972;28;20483;-74
2023/07/18 11:26:21;;;;;;;;;;;21.90;68.40;;;;;;5111540;28;19922;-74
2023/07/18 11:28:52;;;;;;;;;;;22.00;68.00;;;;;;5112032;28;19916;-78
2023/07/18 11:31:24;;;;;;;;;;;22.00;68.20;;;;;;5112500;27;19947;-77
2023/07/18 11:33:50;;;;;;;;;;;22.10;68.00;;;;;;5112108;28;20349;-77
2023/07/18 11:36:17;;;;;;;;;;;22.10;68.30;;;;;;5096428;27;19938;-76
2023/07/18 11:38:43;;;;;;;;;;;22.10;67.90;;;;;;5111614;27;19961;-68
2023/07/18 11:41:13;;;;;;;;;;;22.10;68.50;;;;;;5110285;27;19999;-69
2023/07/18 11:43:41;;;;;;;;;;;22.20;67.70;;;;;;5109804;28;19984;-69
2023/07/18 11:46:06;;;;;;;;;;;22.30;68.20;;;;;;5109340;27;19919;-69
2023/07/18 11:48:33;;;;;;;;;;;22.40;67.80;;;;;;5110554;28;19935;-68
2023/07/18 11:51:01;;;;;;;;;;;22.50;67.80;;;;;;5111755;27;20405;-71
2023/07/18 11:53:27;;;;;;;;;;;22.60;67.00;;;;;;5111384;28;19912;-70
2023/07/18 11:55:53;;;;;;;;;;;22.70;67.10;;;;;;5111586;28;19912;-69
2023/07/18 11:58:19;;;;;;;;;;;22.80;67.50;;;;;;5111454;28;19912;-70
2023/07/18 12:00:46;;;;;;;;;;;22.90;66.90;;;;;;5111574;28;19919;-70
2023/07/18 12:03:12;;;;;;;;;;;22.90;67.30;;;;;;5110694;27;19915;-69
2023/07/18 12:05:37;;;;;;;;;;;23.00;67.00;;;;;;5110474;28;19926;-69
2023/07/18 12:08:03;;;;;;;;;;;23.00;66.90;;;;;;5121887;27;20376;-69
2023/07/18 12:10:28;;;;;;;;;;;23.00;67.30;;;;;;5111327;27;19916;-69
2023/07/18 12:12:54;;;;;;;;;;;23.10;67.20;;;;;;5110655;28;19922;-69
2023/07/18 12:15:20;;;;;;;;;;;23.10;67.00;;;;;;5111359;27;19922;-69
2023/07/18 12:17:45;;;;;;;;;;;23.20;67.20;;;;;;5109570;27;19946;-69
2023/07/18 12:20:11;;;;;;;;;;;23.10;67.40;;;;;;5112377;27;19968;-69
2023/07/18 12:22:37;;;;;;;;;;;23.10;67.60;;;;;;5110689;28;19934;-69
2023/07/18 12:25:03;;;;;;;;;;;23.20;67.70;;;;;;5110972;28;19923;-69
2023/07/18 12:27:28;;;;;;;;;;;23.20;67.50;;;;;;5113525;27;20433;-69
2023/07/18 12:29:54;;;;;;;;;;;23.20;67.90;;;;;;5110842;28;19912;-69
2023/07/18 12:32:19;;;;;;;;;;;23.20;67.90;;;;;;5108709;28;19938;-69
2023/07/18 12:34:45;;;;;;;;;;;23.30;68.00;;;;;;5110456;27;20379;-69
2023/07/18 12:37:10;;;;;;;;;;;23.40;67.90;;;;;;5110307;28;19919;-69
2023/07/18 12:39:36;;;;;;;;;;;23.50;68.00;;;;;;5110305;28;19933;-69
2023/07/18 12:42:02;;;;;;;;;;;23.40;67.50;;;;;;5110184;28;19954;-69
2023/07/18 12:44:40;;;;;;;;;;;23.50;68.00;;;;;;5108131;28;20001;-69
2023/07/18 12:47:06;;;;;;;;;;;23.40;67.80;;;;;;5107988;28;20013;-69
2023/07/18 12:49:32;;;;;;;;;;;23.60;67.50;;;;;;5109565;28;19963;-69
2023/07/18 12:51:58;;;;;;;;;;;23.60;67.60;;;;;;5108676;27;20028;-69
2023/07/18 12:54:23;;;;;;;;;;;23.60;66.90;;;;;;5108907;28;19973;-69
2023/07/18 12:56:49;;;;;;;;;;;23.70;67.20;;;;;;5109746;27;19916;-69
2023/07/18 12:59:14;;;;;;;;;;;23.70;67.00;;;;;;5109987;28;19957;-69
2023/07/18 13:01:40;;;;;;;;;;;23.60;67.00;;;;;;5107070;28;20361;-69
2023/07/18 13:04:05;;;;;;;;;;;23.70;66.80;;;;;;5109037;28;19912;-69
2023/07/18 13:06:31;;;;;;;;;;;23.70;66.70;;;;;;5109503;28;20380;-69
2023/07/18 13:08:56;;;;;;;;;;;23.70;66.50;;;;;;5110540;27;19913;-69
2023/07/18 13:11:22;;;;;;;;;;;23.80;67.60;;;;;;5112023;27;19916;-69
2023/07/18 13:13:48;;;;;;;;;;;23.80;67.70;;;;;;5111990;27;19922;-69
2023/07/18 13:16:14;;;;;;;;;;;23.90;67.80;;;;;;5109227;28;19930;-69
2023/07/18 13:18:40;;;;;;;;;;;23.90;66.80;;;;;;5108963;28;19911;-69
2023/07/18 13:21:06;;;;;;;;;;;24.00;66.70;;;;;;5107563;28;19933;-69
2023/07/18 13:23:31;;;;;;;;;;;24.10;66.30;;;;;;5108234;27;19973;-69
2023/07/18 13:26:04;;;;;;;;;;;24.10;67.20;;;;;;5084905;27;19962;-67
2023/07/18 13:28:30;;;;;;;;;;;24.10;66.90;;;;;;5082922;28;20368;-67
2023/07/18 13:30:55;;;;;;;;;;;24.10;67.00;;;;;;5081198;28;19912;-67
2023/07/18 13:33:21;;;;;;;;;;;24.20;67.30;;;;;;5084482;28;19985;-67
2023/07/18 13:35:46;;;;;;;;;;;24.30;67.30;;;;;;5079153;28;19916;-67
2023/07/18 13:38:12;;;;;;;;;;;24.30;66.40;;;;;;5084020;28;20003;-67
2023/07/18 13:40:37;;;;;;;;;;;24.40;66.20;;;;;;5085804;28;19919;-67
2023/07/18 13:43:03;;;;;;;;;;;24.50;67.10;;;;;;5085797;28;19963;-67
2023/07/18 13:45:28;;;;;;;;;;;24.50;65.90;;;;;;5086782;28;19931;-67
2023/07/18 13:47:54;;;;;;;;;;;24.50;66.80;;;;;;5084893;28;19913;-67
2023/07/18 13:50:19;;;;;;;;;;;24.50;66.60;;;;;;5084328;28;19939;-67
2023/07/18 13:52:45;;;;;;;;;;;24.60;67.50;;;;;;5084908;28;20511;-67
2023/07/18 13:55:11;;;;;;;;;;;24.70;66.70;;;;;;5084953;28;19912;-67
2023/07/18 13:57:36;;;;;;;;;;;24.70;66.50;;;;;;5104407;28;20010;-67
2023/07/18 14:00:02;;;;;;;;;;;24.70;65.80;;;;;;5103633;28;20288;-67
2023/07/18 14:02:28;;;;;;;;;;;24.80;65.00;;;;;;5065306;28;19913;-67
2023/07/18 14:04:53;;;;;;;;;;;24.90;64.80;;;;;;5078255;28;19927;-67
2023/07/18 14:07:19;;;;;;;;;;;25.00;66.70;;;;;;5088044;28;19912;-67
2023/07/18 14:09:44;;;;;;;;;;;25.00;66.30;;;;;;5105606;28;20315;-68